sensor_id;sensor_type;location;lat;lon;timestamp;temperature;humidity
7516;DHT22;3799;47.184;8.538;2022-08-30T00:01:14;20.40;99.90
7516;DHT22;3799;47.184;8.538;2022-08-30T00:03:45;20.50;99.90
7516;DHT22;3799;47.184;8.538;2022-08-30T00:06:11;20.40;99.90
7516;DHT22;3799;47.184;8.538;2022-08-30T00:08:37;20.50;99.90
7516;DHT22;3799;47.184;8.538;2022-08-30T00:11:04;20.50;99.90
7516;DHT22;3799;47.184;8.538;2022-08-30T00:13:30;20.50;99.90
7516;DHT22;3799;47.184;8.538;2022-08-30T00:15:55;20.50;99.90
7516;DHT22;3799;47.184;8.538;2022-08-30T00:18:22;20.70;99.90
7516;DHT22;3799;47.184;8.538;2022-08-30T00:20:48;20.50;99.90
7516;DHT22;3799;47.184;8.538;2022-08-30T00:23:14;20.60;99.90
7516;DHT22;3799;47.184;8.538;2022-08-30T00:25:40;20.70;99.90
7516;DHT22;3799;47.184;8.538;2022-08-30T00:28:05;20.50;99.90
7516;DHT22;3799;47.184;8.538;2022-08-30T00:30:31;20.50;99.90
7516;DHT22;3799;47.184;8.538;2022-08-30T00:32:57;20.60;99.90
7516;DHT22;3799;47.184;8.538;2022-08-30T00:35:23;20.60;99.90
7516;DHT22;3799;47.184;8.538;2022-08-30T00:37:49;20.70;99.90
7516;DHT22;3799;47.184;8.538;2022-08-30T00:40:16;20.90;99.90
7516;DHT22;3799;47.184;8.538;2022-08-30T00:42:43;20.80;99.90
7516;DHT22;3799;47.184;8.538;2022-08-30T00:45:10;20.80;99.90
7516;DHT22;3799;47.184;8.538;2022-08-30T00:47:36;20.50;99.90
7516;DHT22;3799;47.184;8.538;2022-08-30T00:50:02;20.60;99.90
7516;DHT22;3799;47.184;8.538;2022-08-30T00:52:27;20.50;99.90
7516;DHT22;3799;47.184;8.538;2022-08-30T00:54:53;20.50;99.90
7516;DHT22;3799;47.184;8.538;2022-08-30T00:57:19;20.30;99.90
7516;DHT22;3799;47.184;8.538;2022-08-30T00:59:45;20.60;99.90
7516;DHT22;3799;47.184;8.538;2022-08-30T01:02:11;20.40;99.90
7516;DHT22;3799;47.184;8.538;2022-08-30T01:04:38;20.50;99.90
7516;DHT22;3799;47.184;8.538;2022-08-30T01:07:05;20.30;99.90
7516;DHT22;3799;47.184;8.538;2022-08-30T01:09:33;20.40;99.90
7516;DHT22;3799;47.184;8.538;2022-08-30T01:11:58;20.20;99.90
7516;DHT22;3799;47.184;8.538;2022-08-30T01:14:24;20.30;99.90
7516;DHT22;3799;47.184;8.538;2022-08-30T01:16:50;20.30;99.90
7516;DHT22;3799;47.184;8.538;2022-08-30T01:22:02;20.30;99.90
7516;DHT22;3799;47.184;8.538;2022-08-30T01:24:30;20.40;99.90
7516;DHT22;3799;47.184;8.538;2022-08-30T01:26:55;20.40;99.90
7516;DHT22;3799;47.184;8.538;2022-08-30T01:29:21;20.10;99.90
7516;DHT22;3799;47.184;8.538;2022-08-30T01:31:49;20.40;99.90
7516;DHT22;3799;47.184;8.538;2022-08-30T01:34:15;20.40;99.90
7516;DHT22;3799;47.184;8.538;2022-08-30T01:36:41;20.40;99.90
7516;DHT22;3799;47.184;8.538;2022-08-30T01:39:08;20.20;99.90
7516;DHT22;3799;47.184;8.538;2022-08-30T01:41:36;20.40;99.90
7516;DHT22;3799;47.184;8.538;2022-08-30T01:44:03;20.30;99.90
7516;DHT22;3799;47.184;8.538;2022-08-30T01:46:33;20.50;99.90
7516;DHT22;3799;47.184;8.538;2022-08-30T01:49:01;20.20;99.90
7516;DHT22;3799;47.184;8.538;2022-08-30T01:51:28;20.30;99.90
7516;DHT22;3799;47.184;8.538;2022-08-30T01:53:54;20.20;99.90
7516;DHT22;3799;47.184;8.538;2022-08-30T01:56:20;20.30;99.90
7516;DHT22;3799;47.184;8.538;2022-08-30T01:58:46;20.10;99.90
7516;DHT22;3799;47.184;8.538;2022-08-30T02:01:12;20.10;99.90
7516;DHT22;3799;47.184;8.538;2022-08-30T02:03:40;20.20;99.90
7516;DHT22;3799;47.184;8.538;2022-08-30T02:06:07;20.00;99.90
7516;DHT22;3799;47.184;8.538;2022-08-30T02:08:33;20.10;99.90
7516;DHT22;3799;47.184;8.538;2022-08-30T02:10:59;20.10;99.90
7516;DHT22;3799;47.184;8.538;2022-08-30T02:13:25;20.20;99.90
7516;DHT22;3799;47.184;8.538;2022-08-30T02:15:51;20.10;99.90
7516;DHT22;3799;47.184;8.538;2022-08-30T02:18:19;20.10;99.90
7516;DHT22;3799;47.184;8.538;2022-08-30T02:20:45;20.10;99.90
7516;DHT22;3799;47.184;8.538;2022-08-30T02:23:11;20.10;99.90
7516;DHT22;3799;47.184;8.538;2022-08-30T02:25:36;20.30;99.90
7516;DHT22;3799;47.184;8.538;2022-08-30T02:28:03;20.00;99.90
7516;DHT22;3799;47.184;8.538;2022-08-30T02:30:29;20.20;99.90
7516;DHT22;3799;47.184;8.538;2022-08-30T02:32:54;20.40;99.90
7516;DHT22;3799;47.184;8.538;2022-08-30T02:35:20;20.20;99.90
7516;DHT22;3799;47.184;8.538;2022-08-30T02:37:46;20.20;99.90
7516;DHT22;3799;47.184;8.538;2022-08-30T02:40:11;20.10;99.90
7516;DHT22;3799;47.184;8.538;2022-08-30T02:42:37;20.00;99.90
7516;DHT22;3799;47.184;8.538;2022-08-30T02:45:03;20.20;99.90
7516;DHT22;3799;47.184;8.538;2022-08-30T02:47:29;20.20;99.90
7516;DHT22;3799;47.184;8.538;2022-08-30T02:49:54;20.10;99.90
7516;DHT22;3799;47.184;8.538;2022-08-30T02:52:20;20.10;99.90
7516;DHT22;3799;47.184;8.538;2022-08-30T02:54:47;19.90;99.90
7516;DHT22;3799;47.184;8.538;2022-08-30T02:57:13;20.10;99.90
7516;DHT22;3799;47.184;8.538;2022-08-30T02:59:38;20.00;99.90
7516;DHT22;3799;47.184;8.538;2022-08-30T03:02:09;19.90;99.90
7516;DHT22;3799;47.184;8.538;2022-08-30T03:04:35;20.00;99.90
7516;DHT22;3799;47.184;8.538;2022-08-30T03:07:00;20.00;99.90
7516;DHT22;3799;47.184;8.538;2022-08-30T03:09:26;19.90;99.90
7516;DHT22;3799;47.184;8.538;2022-08-30T03:11:52;19.80;99.90
7516;DHT22;3799;47.184;8.538;2022-08-30T03:14:17;19.90;99.90
7516;DHT22;3799;47.184;8.538;2022-08-30T03:16:43;20.00;99.90
7516;DHT22;3799;47.184;8.538;2022-08-30T03:19:09;19.80;99.90
7516;DHT22;3799;47.184;8.538;2022-08-30T03:21:35;19.90;99.90
7516;DHT22;3799;47.184;8.538;2022-08-30T03:24:01;19.50;99.90
7516;DHT22;3799;47.184;8.538;2022-08-30T03:26:26;19.80;99.90
7516;DHT22;3799;47.184;8.538;2022-08-30T03:28:52;19.70;99.90
7516;DHT22;3799;47.184;8.538;2022-08-30T03:31:17;19.70;99.90
7516;DHT22;3799;47.184;8.538;2022-08-30T03:33:43;19.60;99.90
7516;DHT22;3799;47.184;8.538;2022-08-30T03:36:09;19.50;99.90
7516;DHT22;3799;47.184;8.538;2022-08-30T03:38:35;19.50;99.90
7516;DHT22;3799;47.184;8.538;2022-08-30T03:41:01;19.30;99.90
7516;DHT22;3799;47.184;8.538;2022-08-30T03:43:26;19.40;99.90
7516;DHT22;3799;47.184;8.538;2022-08-30T03:45:52;19.40;99.90
7516;DHT22;3799;47.184;8.538;2022-08-30T03:48:18;19.20;99.90
7516;DHT22;3799;47.184;8.538;2022-08-30T03:50:43;19.60;99.90
7516;DHT22;3799;47.184;8.538;2022-08-30T03:53:09;19.50;99.90
7516;DHT22;3799;47.184;8.538;2022-08-30T03:55:35;19.30;99.90
7516;DHT22;3799;47.184;8.538;2022-08-30T03:58:00;19.30;99.90
7516;DHT22;3799;47.184;8.538;2022-08-30T04:00:26;19.50;99.90
7516;DHT22;3799;47.184;8.538;2022-08-30T04:02:52;19.60;99.90
7516;DHT22;3799;47.184;8.538;2022-08-30T04:05:17;19.60;99.90
7516;DHT22;3799;47.184;8.538;2022-08-30T04:07:43;19.60;99.90
7516;DHT22;3799;47.184;8.538;2022-08-30T04:10:09;19.70;99.90
7516;DHT22;3799;47.184;8.538;2022-08-30T04:12:34;19.90;99.90
7516;DHT22;3799;47.184;8.538;2022-08-30T04:15:00;19.90;99.90
7516;DHT22;3799;47.184;8.538;2022-08-30T04:17:26;19.70;99.90
7516;DHT22;3799;47.184;8.538;2022-08-30T04:19:52;19.60;99.90
7516;DHT22;3799;47.184;8.538;2022-08-30T04:22:17;19.60;99.90
7516;DHT22;3799;47.184;8.538;2022-08-30T04:24:43;19.80;99.90
7516;DHT22;3799;47.184;8.538;2022-08-30T04:27:09;19.60;99.90
7516;DHT22;3799;47.184;8.538;2022-08-30T04:29:35;19.30;99.90
7516;DHT22;3799;47.184;8.538;2022-08-30T04:32:00;19.40;99.90
7516;DHT22;3799;47.184;8.538;2022-08-30T04:34:26;19.40;99.90
7516;DHT22;3799;47.184;8.538;2022-08-30T04:36:51;19.60;99.90
7516;DHT22;3799;47.184;8.538;2022-08-30T04:39:17;19.40;99.90
7516;DHT22;3799;47.184;8.538;2022-08-30T04:41:43;19.60;99.90
7516;DHT22;3799;47.184;8.538;2022-08-30T04:44:08;19.60;99.90
7516;DHT22;3799;47.184;8.538;2022-08-30T04:46:34;19.20;99.90
7516;DHT22;3799;47.184;8.538;2022-08-30T04:49:00;19.30;99.90
7516;DHT22;3799;47.184;8.538;2022-08-30T04:51:26;19.50;99.90
7516;DHT22;3799;47.184;8.538;2022-08-30T04:53:51;19.30;99.90
7516;DHT22;3799;47.184;8.538;2022-08-30T04:56:18;19.20;99.90
7516;DHT22;3799;47.184;8.538;2022-08-30T04:58:47;19.20;99.90
7516;DHT22;3799;47.184;8.538;2022-08-30T05:01:14;19.20;99.90
7516;DHT22;3799;47.184;8.538;2022-08-30T05:03:40;19.10;99.90
7516;DHT22;3799;47.184;8.538;2022-08-30T05:06:05;19.30;99.90
7516;DHT22;3799;47.184;8.538;2022-08-30T05:08:31;19.20;99.90
7516;DHT22;3799;47.184;8.538;2022-08-30T05:10:57;19.30;99.90
7516;DHT22;3799;47.184;8.538;2022-08-30T05:13:22;19.40;99.90
7516;DHT22;3799;47.184;8.538;2022-08-30T05:15:48;19.60;99.90
7516;DHT22;3799;47.184;8.538;2022-08-30T05:18:14;19.80;99.90
7516;DHT22;3799;47.184;8.538;2022-08-30T05:20:40;20.10;99.90
7516;DHT22;3799;47.184;8.538;2022-08-30T05:23:07;20.10;99.90
7516;DHT22;3799;47.184;8.538;2022-08-30T05:25:35;20.50;99.90
7516;DHT22;3799;47.184;8.538;2022-08-30T05:28:01;20.60;99.90
7516;DHT22;3799;47.184;8.538;2022-08-30T05:30:26;20.80;99.90
7516;DHT22;3799;47.184;8.538;2022-08-30T05:32:52;20.80;99.90
7516;DHT22;3799;47.184;8.538;2022-08-30T05:35:18;20.90;99.90
7516;DHT22;3799;47.184;8.538;2022-08-30T05:37:45;21.00;99.90
7516;DHT22;3799;47.184;8.538;2022-08-30T05:40:10;20.90;99.90
7516;DHT22;3799;47.184;8.538;2022-08-30T05:42:36;21.10;99.90
7516;DHT22;3799;47.184;8.538;2022-08-30T05:45:03;21.20;99.90
7516;DHT22;3799;47.184;8.538;2022-08-30T05:47:28;21.30;99.90
7516;DHT22;3799;47.184;8.538;2022-08-30T05:49:54;21.40;99.90
7516;DHT22;3799;47.184;8.538;2022-08-30T05:52:20;21.40;99.90
7516;DHT22;3799;47.184;8.538;2022-08-30T05:54:50;21.50;99.90
7516;DHT22;3799;47.184;8.538;2022-08-30T05:57:16;21.50;99.90
7516;DHT22;3799;47.184;8.538;2022-08-30T05:59:42;21.60;99.90
7516;DHT22;3799;47.184;8.538;2022-08-30T06:02:07;21.60;99.90
7516;DHT22;3799;47.184;8.538;2022-08-30T06:04:33;21.70;99.90
7516;DHT22;3799;47.184;8.538;2022-08-30T06:07:01;21.80;99.90
7516;DHT22;3799;47.184;8.538;2022-08-30T06:09:27;21.80;99.90
7516;DHT22;3799;47.184;8.538;2022-08-30T06:11:53;21.80;99.90
7516;DHT22;3799;47.184;8.538;2022-08-30T06:14:19;21.90;99.90
7516;DHT22;3799;47.184;8.538;2022-08-30T06:16:44;21.90;99.90
7516;DHT22;3799;47.184;8.538;2022-08-30T06:19:10;21.90;99.90
7516;DHT22;3799;47.184;8.538;2022-08-30T06:21:37;21.90;99.90
7516;DHT22;3799;47.184;8.538;2022-08-30T06:24:04;21.90;99.90
7516;DHT22;3799;47.184;8.538;2022-08-30T06:26:30;21.90;99.90
7516;DHT22;3799;47.184;8.538;2022-08-30T06:28:56;21.80;99.90
7516;DHT22;3799;47.184;8.538;2022-08-30T06:31:23;21.90;99.90
7516;DHT22;3799;47.184;8.538;2022-08-30T06:33:49;21.90;99.90
7516;DHT22;3799;47.184;8.538;2022-08-30T06:36:16;21.90;99.90
7516;DHT22;3799;47.184;8.538;2022-08-30T06:38:44;22.00;99.90
7516;DHT22;3799;47.184;8.538;2022-08-30T06:41:11;22.00;99.90
7516;DHT22;3799;47.184;8.538;2022-08-30T06:43:37;22.10;99.90
7516;DHT22;3799;47.184;8.538;2022-08-30T06:46:13;22.10;99.90
7516;DHT22;3799;47.184;8.538;2022-08-30T06:48:42;22.10;99.90
7516;DHT22;3799;47.184;8.538;2022-08-30T06:51:10;22.10;99.90
7516;DHT22;3799;47.184;8.538;2022-08-30T06:53:35;22.10;99.90
7516;DHT22;3799;47.184;8.538;2022-08-30T06:56:05;22.10;99.90
7516;DHT22;3799;47.184;8.538;2022-08-30T06:58:35;22.10;99.90
7516;DHT22;3799;47.184;8.538;2022-08-30T07:01:01;22.00;99.90
7516;DHT22;3799;47.184;8.538;2022-08-30T07:03:27;22.00;99.90
7516;DHT22;3799;47.184;8.538;2022-08-30T07:05:53;22.00;99.90
7516;DHT22;3799;47.184;8.538;2022-08-30T07:08:19;22.10;99.90
7516;DHT22;3799;47.184;8.538;2022-08-30T07:10:45;22.10;99.90
7516;DHT22;3799;47.184;8.538;2022-08-30T07:13:11;22.10;99.90
7516;DHT22;3799;47.184;8.538;2022-08-30T07:15:39;22.20;99.90
7516;DHT22;3799;47.184;8.538;2022-08-30T07:18:05;22.20;99.90
7516;DHT22;3799;47.184;8.538;2022-08-30T07:20:49;22.20;99.90
7516;DHT22;3799;47.184;8.538;2022-08-30T07:23:15;22.20;99.90
7516;DHT22;3799;47.184;8.538;2022-08-30T07:25:41;22.10;99.90
7516;DHT22;3799;47.184;8.538;2022-08-30T07:28:07;22.10;99.90
7516;DHT22;3799;47.184;8.538;2022-08-30T07:30:33;22.20;99.90
7516;DHT22;3799;47.184;8.538;2022-08-30T07:32:59;22.30;99.90
7516;DHT22;3799;47.184;8.538;2022-08-30T07:35:25;22.40;99.90
7516;DHT22;3799;47.184;8.538;2022-08-30T07:37:51;22.60;99.90
7516;DHT22;3799;47.184;8.538;2022-08-30T07:40:17;22.70;99.90
7516;DHT22;3799;47.184;8.538;2022-08-30T07:42:42;22.70;99.90
7516;DHT22;3799;47.184;8.538;2022-08-30T07:45:09;22.70;99.90
7516;DHT22;3799;47.184;8.538;2022-08-30T07:47:34;22.70;99.90
7516;DHT22;3799;47.184;8.538;2022-08-30T07:50:00;22.60;99.90
7516;DHT22;3799;47.184;8.538;2022-08-30T07:52:26;22.60;99.90
7516;DHT22;3799;47.184;8.538;2022-08-30T07:54:56;22.50;99.90
7516;DHT22;3799;47.184;8.538;2022-08-30T07:57:22;22.60;99.90
7516;DHT22;3799;47.184;8.538;2022-08-30T07:59:47;22.70;99.90
7516;DHT22;3799;47.184;8.538;2022-08-30T08:02:13;22.70;99.90
7516;DHT22;3799;47.184;8.538;2022-08-30T08:04:39;22.80;99.90
7516;DHT22;3799;47.184;8.538;2022-08-30T08:07:05;22.90;99.90
7516;DHT22;3799;47.184;8.538;2022-08-30T08:09:30;23.00;99.90
7516;DHT22;3799;47.184;8.538;2022-08-30T08:11:58;23.20;99.90
7516;DHT22;3799;47.184;8.538;2022-08-30T08:14:24;23.30;99.90
7516;DHT22;3799;47.184;8.538;2022-08-30T08:16:50;23.40;99.90
7516;DHT22;3799;47.184;8.538;2022-08-30T08:19:15;23.50;99.90
7516;DHT22;3799;47.184;8.538;2022-08-30T08:21:41;23.60;99.90
7516;DHT22;3799;47.184;8.538;2022-08-30T08:24:07;23.60;99.90
7516;DHT22;3799;47.184;8.538;2022-08-30T08:26:33;23.70;99.90
7516;DHT22;3799;47.184;8.538;2022-08-30T08:28:59;23.70;99.90
7516;DHT22;3799;47.184;8.538;2022-08-30T08:31:26;23.60;99.90
7516;DHT22;3799;47.184;8.538;2022-08-30T08:33:53;23.80;99.90
7516;DHT22;3799;47.184;8.538;2022-08-30T08:36:18;23.90;99.90
7516;DHT22;3799;47.184;8.538;2022-08-30T08:38:44;24.10;99.90
7516;DHT22;3799;47.184;8.538;2022-08-30T08:43:45;24.40;99.90
7516;DHT22;3799;47.184;8.538;2022-08-30T08:46:12;24.40;99.90
7516;DHT22;3799;47.184;8.538;2022-08-30T08:48:41;24.40;99.90
7516;DHT22;3799;47.184;8.538;2022-08-30T08:51:08;24.40;99.90
7516;DHT22;3799;47.184;8.538;2022-08-30T08:53:57;24.30;99.90
7516;DHT22;3799;47.184;8.538;2022-08-30T08:56:25;24.30;99.90
7516;DHT22;3799;47.184;8.538;2022-08-30T08:58:52;24.20;99.90
7516;DHT22;3799;47.184;8.538;2022-08-30T09:01:19;24.20;99.90
7516;DHT22;3799;47.184;8.538;2022-08-30T09:03:45;24.30;99.90
7516;DHT22;3799;47.184;8.538;2022-08-30T09:06:19;24.50;99.90
7516;DHT22;3799;47.184;8.538;2022-08-30T09:08:46;24.70;99.90
7516;DHT22;3799;47.184;8.538;2022-08-30T09:11:11;24.80;99.90
7516;DHT22;3799;47.184;8.538;2022-08-30T09:13:41;25.00;99.90
7516;DHT22;3799;47.184;8.538;2022-08-30T09:16:07;25.00;99.90
7516;DHT22;3799;47.184;8.538;2022-08-30T09:18:43;24.80;99.90
7516;DHT22;3799;47.184;8.538;2022-08-30T09:21:09;24.80;99.90
7516;DHT22;3799;47.184;8.538;2022-08-30T09:23:35;24.70;99.90
7516;DHT22;3799;47.184;8.538;2022-08-30T09:26:05;24.70;99.90
7516;DHT22;3799;47.184;8.538;2022-08-30T09:28:50;24.70;99.90
7516;DHT22;3799;47.184;8.538;2022-08-30T09:31:19;24.80;99.90
7516;DHT22;3799;47.184;8.538;2022-08-30T09:33:55;25.00;99.90
7516;DHT22;3799;47.184;8.538;2022-08-30T09:36:26;25.10;99.90
7516;DHT22;3799;47.184;8.538;2022-08-30T09:38:57;25.10;99.90
7516;DHT22;3799;47.184;8.538;2022-08-30T09:44:06;25.40;99.90
7516;DHT22;3799;47.184;8.538;2022-08-30T09:46:32;25.50;99.90
7516;DHT22;3799;47.184;8.538;2022-08-30T09:48:58;25.70;99.50
7516;DHT22;3799;47.184;8.538;2022-08-30T09:56:53;26.10;98.20
7516;DHT22;3799;47.184;8.538;2022-08-30T10:04:34;26.00;97.70
7516;DHT22;3799;47.184;8.538;2022-08-30T10:07:05;26.10;97.50
7516;DHT22;3799;47.184;8.538;2022-08-30T10:09:51;26.00;97.30
7516;DHT22;3799;47.184;8.538;2022-08-30T10:12:27;26.10;97.50
7516;DHT22;3799;47.184;8.538;2022-08-30T10:15:06;26.20;97.40
7516;DHT22;3799;47.184;8.538;2022-08-30T10:25:18;26.50;97.10
7516;DHT22;3799;47.184;8.538;2022-08-30T10:27:51;26.70;96.80
7516;DHT22;3799;47.184;8.538;2022-08-30T10:30:18;27.00;96.20
7516;DHT22;3799;47.184;8.538;2022-08-30T10:32:52;27.30;95.50
7516;DHT22;3799;47.184;8.538;2022-08-30T10:37:47;27.60;94.50
7516;DHT22;3799;47.184;8.538;2022-08-30T10:40:16;27.80;93.80
7516;DHT22;3799;47.184;8.538;2022-08-30T10:43:01;28.00;93.50
7516;DHT22;3799;47.184;8.538;2022-08-30T10:45:28;28.20;92.70
7516;DHT22;3799;47.184;8.538;2022-08-30T10:48:15;28.30;91.70
7516;DHT22;3799;47.184;8.538;2022-08-30T10:50:45;28.10;91.40
7516;DHT22;3799;47.184;8.538;2022-08-30T10:53:47;28.00;91.10
7516;DHT22;3799;47.184;8.538;2022-08-30T10:56:09;27.90;90.50
7516;DHT22;3799;47.184;8.538;2022-08-30T10:58:36;27.90;90.50
7516;DHT22;3799;47.184;8.538;2022-08-30T11:06:37;28.10;88.60
7516;DHT22;3799;47.184;8.538;2022-08-30T11:14:28;27.70;90.50
7516;DHT22;3799;47.184;8.538;2022-08-30T11:16:55;27.60;90.70
7516;DHT22;3799;47.184;8.538;2022-08-30T11:19:35;27.60;90.90
7516;DHT22;3799;47.184;8.538;2022-08-30T11:22:11;27.70;90.90
7516;DHT22;3799;47.184;8.538;2022-08-30T11:27:42;28.20;90.20
7516;DHT22;3799;47.184;8.538;2022-08-30T11:48:44;30.00;81.00
7516;DHT22;3799;47.184;8.538;2022-08-30T11:51:37;30.20;77.90
7516;DHT22;3799;47.184;8.538;2022-08-30T11:54:01;30.40;75.50
7516;DHT22;3799;47.184;8.538;2022-08-30T11:56:53;30.50;72.90
7516;DHT22;3799;47.184;8.538;2022-08-30T12:01:51;30.70;72.00
7516;DHT22;3799;47.184;8.538;2022-08-30T12:06:45;30.80;69.10
7516;DHT22;3799;47.184;8.538;2022-08-30T12:09:56;30.80;67.10
7516;DHT22;3799;47.184;8.538;2022-08-30T12:12:04;30.80;64.60
7516;DHT22;3799;47.184;8.538;2022-08-30T12:14:44;30.90;62.50
7516;DHT22;3799;47.184;8.538;2022-08-30T12:17:19;31.00;59.90
7516;DHT22;3799;47.184;8.538;2022-08-30T12:20:04;30.90;59.80
7516;DHT22;3799;47.184;8.538;2022-08-30T12:22:35;31.00;59.30
7516;DHT22;3799;47.184;8.538;2022-08-30T12:25:02;31.10;59.20
7516;DHT22;3799;47.184;8.538;2022-08-30T12:27:37;31.20;59.10
7516;DHT22;3799;47.184;8.538;2022-08-30T12:30:05;31.30;59.40
7516;DHT22;3799;47.184;8.538;2022-08-30T12:32:32;31.40;59.10
7516;DHT22;3799;47.184;8.538;2022-08-30T12:34:58;31.50;57.80
7516;DHT22;3799;47.184;8.538;2022-08-30T12:37:28;31.70;56.90
7516;DHT22;3799;47.184;8.538;2022-08-30T12:40:06;31.90;55.70
7516;DHT22;3799;47.184;8.538;2022-08-30T12:42:36;32.10;54.90
7516;DHT22;3799;47.184;8.538;2022-08-30T12:45:09;32.30;54.50
7516;DHT22;3799;47.184;8.538;2022-08-30T12:50:12;32.60;54.50
7516;DHT22;3799;47.184;8.538;2022-08-30T12:52:40;32.70;54.10
7516;DHT22;3799;47.184;8.538;2022-08-30T12:55:14;32.80;53.50
7516;DHT22;3799;47.184;8.538;2022-08-30T12:57:42;32.90;53.80
7516;DHT22;3799;47.184;8.538;2022-08-30T13:00:09;33.00;54.10
7516;DHT22;3799;47.184;8.538;2022-08-30T13:07:51;33.10;52.70
7516;DHT22;3799;47.184;8.538;2022-08-30T13:10:17;33.20;51.50
7516;DHT22;3799;47.184;8.538;2022-08-30T13:13:00;33.20;52.10
7516;DHT22;3799;47.184;8.538;2022-08-30T13:15:28;33.30;52.40
7516;DHT22;3799;47.184;8.538;2022-08-30T13:18:09;33.20;52.60
7516;DHT22;3799;47.184;8.538;2022-08-30T13:20:35;33.40;52.50
7516;DHT22;3799;47.184;8.538;2022-08-30T13:23:08;33.60;51.50
7516;DHT22;3799;47.184;8.538;2022-08-30T13:25:34;33.70;51.10
7516;DHT22;3799;47.184;8.538;2022-08-30T13:28:00;33.70;50.80
7516;DHT22;3799;47.184;8.538;2022-08-30T13:30:27;33.80;51.00
7516;DHT22;3799;47.184;8.538;2022-08-30T13:32:53;33.70;51.20
7516;DHT22;3799;47.184;8.538;2022-08-30T13:35:19;33.70;51.70
7516;DHT22;3799;47.184;8.538;2022-08-30T13:37:44;33.70;52.00
7516;DHT22;3799;47.184;8.538;2022-08-30T13:40:11;33.80;51.50
7516;DHT22;3799;47.184;8.538;2022-08-30T13:42:37;33.90;50.90
7516;DHT22;3799;47.184;8.538;2022-08-30T13:45:05;34.00;50.60
7516;DHT22;3799;47.184;8.538;2022-08-30T13:47:31;34.10;50.20
7516;DHT22;3799;47.184;8.538;2022-08-30T13:49:56;34.30;50.50
7516;DHT22;3799;47.184;8.538;2022-08-30T13:52:22;34.40;50.50
7516;DHT22;3799;47.184;8.538;2022-08-30T13:54:49;34.40;50.50
7516;DHT22;3799;47.184;8.538;2022-08-30T13:57:16;34.50;50.10
7516;DHT22;3799;47.184;8.538;2022-08-30T13:59:42;34.40;49.90
7516;DHT22;3799;47.184;8.538;2022-08-30T14:02:07;34.10;50.50
7516;DHT22;3799;47.184;8.538;2022-08-30T14:04:33;33.60;50.70
7516;DHT22;3799;47.184;8.538;2022-08-30T14:06:59;33.00;51.10
7516;DHT22;3799;47.184;8.538;2022-08-30T14:09:24;32.40;51.00
7516;DHT22;3799;47.184;8.538;2022-08-30T14:11:50;32.00;51.20
7516;DHT22;3799;47.184;8.538;2022-08-30T14:14:16;31.60;52.20
7516;DHT22;3799;47.184;8.538;2022-08-30T14:16:42;31.30;52.60
7516;DHT22;3799;47.184;8.538;2022-08-30T14:19:08;31.00;53.00
7516;DHT22;3799;47.184;8.538;2022-08-30T14:21:36;30.80;53.50
7516;DHT22;3799;47.184;8.538;2022-08-30T14:24:02;30.50;53.70
7516;DHT22;3799;47.184;8.538;2022-08-30T14:26:36;30.30;54.30
7516;DHT22;3799;47.184;8.538;2022-08-30T14:29:02;30.20;54.60
7516;DHT22;3799;47.184;8.538;2022-08-30T14:31:28;30.30;54.70
7516;DHT22;3799;47.184;8.538;2022-08-30T14:33:55;30.70;54.40
7516;DHT22;3799;47.184;8.538;2022-08-30T14:36:21;31.20;54.00
7516;DHT22;3799;47.184;8.538;2022-08-30T14:38:46;31.60;53.60
7516;DHT22;3799;47.184;8.538;2022-08-30T14:41:12;32.20;53.20
7516;DHT22;3799;47.184;8.538;2022-08-30T14:43:38;32.60;52.40
7516;DHT22;3799;47.184;8.538;2022-08-30T14:46:07;33.10;51.70
7516;DHT22;3799;47.184;8.538;2022-08-30T14:48:34;33.50;51.40
7516;DHT22;3799;47.184;8.538;2022-08-30T14:50:59;33.70;50.40
7516;DHT22;3799;47.184;8.538;2022-08-30T14:53:25;33.90;49.70
7516;DHT22;3799;47.184;8.538;2022-08-30T14:55:51;34.20;49.50
7516;DHT22;3799;47.184;8.538;2022-08-30T14:58:16;34.40;49.30
7516;DHT22;3799;47.184;8.538;2022-08-30T15:00:50;34.40;48.90
7516;DHT22;3799;47.184;8.538;2022-08-30T15:03:16;34.50;49.40
7516;DHT22;3799;47.184;8.538;2022-08-30T15:05:46;34.60;49.10
7516;DHT22;3799;47.184;8.538;2022-08-30T15:08:13;34.20;48.40
7516;DHT22;3799;47.184;8.538;2022-08-30T15:10:39;33.50;49.20
7516;DHT22;3799;47.184;8.538;2022-08-30T15:13:05;32.70;49.80
7516;DHT22;3799;47.184;8.538;2022-08-30T15:15:30;32.00;50.00
7516;DHT22;3799;47.184;8.538;2022-08-30T15:17:56;31.40;50.50
7516;DHT22;3799;47.184;8.538;2022-08-30T15:20:22;30.90;51.00
7516;DHT22;3799;47.184;8.538;2022-08-30T15:22:47;30.40;51.10
7516;DHT22;3799;47.184;8.538;2022-08-30T15:25:13;30.00;51.50
7516;DHT22;3799;47.184;8.538;2022-08-30T15:27:39;29.60;52.50
7516;DHT22;3799;47.184;8.538;2022-08-30T15:30:05;29.30;53.40
7516;DHT22;3799;47.184;8.538;2022-08-30T15:32:30;29.00;54.40
7516;DHT22;3799;47.184;8.538;2022-08-30T15:34:56;28.70;54.70
7516;DHT22;3799;47.184;8.538;2022-08-30T15:37:24;28.60;55.50
7516;DHT22;3799;47.184;8.538;2022-08-30T15:39:50;28.40;56.00
7516;DHT22;3799;47.184;8.538;2022-08-30T15:42:16;28.20;56.20
7516;DHT22;3799;47.184;8.538;2022-08-30T15:44:50;28.00;56.70
7516;DHT22;3799;47.184;8.538;2022-08-30T15:47:18;27.80;57.50
7516;DHT22;3799;47.184;8.538;2022-08-30T15:49:43;27.60;58.30
7516;DHT22;3799;47.184;8.538;2022-08-30T15:52:09;27.50;58.40
7516;DHT22;3799;47.184;8.538;2022-08-30T15:54:34;27.30;59.00
7516;DHT22;3799;47.184;8.538;2022-08-30T15:57:00;27.20;59.70
7516;DHT22;3799;47.184;8.538;2022-08-30T15:59:27;27.10;60.00
7516;DHT22;3799;47.184;8.538;2022-08-30T16:01:53;26.90;61.50
7516;DHT22;3799;47.184;8.538;2022-08-30T16:04:18;26.80;62.10
7516;DHT22;3799;47.184;8.538;2022-08-30T16:06:44;26.60;63.70
7516;DHT22;3799;47.184;8.538;2022-08-30T16:09:10;26.50;64.50
7516;DHT22;3799;47.184;8.538;2022-08-30T16:11:36;26.40;65.30
7516;DHT22;3799;47.184;8.538;2022-08-30T16:14:03;26.30;65.80
7516;DHT22;3799;47.184;8.538;2022-08-30T16:16:29;26.20;66.90
7516;DHT22;3799;47.184;8.538;2022-08-30T16:18:55;26.10;67.90
7516;DHT22;3799;47.184;8.538;2022-08-30T16:21:23;26.00;69.50
7516;DHT22;3799;47.184;8.538;2022-08-30T16:23:49;26.00;70.70
7516;DHT22;3799;47.184;8.538;2022-08-30T16:26:17;25.90;71.00
7516;DHT22;3799;47.184;8.538;2022-08-30T16:28:45;25.80;70.60
7516;DHT22;3799;47.184;8.538;2022-08-30T16:31:11;25.80;70.90
7516;DHT22;3799;47.184;8.538;2022-08-30T16:33:37;25.70;71.00
7516;DHT22;3799;47.184;8.538;2022-08-30T16:36:03;25.60;71.20
7516;DHT22;3799;47.184;8.538;2022-08-30T16:38:32;25.60;72.50
7516;DHT22;3799;47.184;8.538;2022-08-30T16:41:01;25.50;73.30
7516;DHT22;3799;47.184;8.538;2022-08-30T16:43:27;25.50;74.70
7516;DHT22;3799;47.184;8.538;2022-08-30T16:45:53;25.40;75.40
7516;DHT22;3799;47.184;8.538;2022-08-30T16:48:18;25.30;76.40
7516;DHT22;3799;47.184;8.538;2022-08-30T16:50:44;25.20;78.20
7516;DHT22;3799;47.184;8.538;2022-08-30T16:53:10;25.10;78.80
7516;DHT22;3799;47.184;8.538;2022-08-30T16:55:36;25.10;79.90
7516;DHT22;3799;47.184;8.538;2022-08-30T16:58:03;25.00;81.00
7516;DHT22;3799;47.184;8.538;2022-08-30T17:00:30;24.90;83.30
7516;DHT22;3799;47.184;8.538;2022-08-30T17:02:56;24.80;83.50
7516;DHT22;3799;47.184;8.538;2022-08-30T17:05:22;24.80;82.80
7516;DHT22;3799;47.184;8.538;2022-08-30T17:07:48;24.50;85.00
7516;DHT22;3799;47.184;8.538;2022-08-30T17:10:14;24.20;83.00
7516;DHT22;3799;47.184;8.538;2022-08-30T17:12:40;23.70;86.00
7516;DHT22;3799;47.184;8.538;2022-08-30T17:15:06;23.20;89.50
7516;DHT22;3799;47.184;8.538;2022-08-30T17:17:32;22.80;92.40